This is the latest recevied weather packets stored in our database for station/object W3EJE-13. If no packets are shown the sender has not sent any weather packets the latest 10 day(s).
| Time | Temp. | Humidity | Pressure | Rain* | Wind** | Luminosity | Snow |
|---|---|---|---|---|---|---|---|
| 1777845453 | 13.33° C | 47% | 1015.6 hPa | 0 mm | - | 134 W/m² | - |
| 1777845150 | 13.33° C | 48% | 1015.7 hPa | 0 mm | - | 304 W/m² | - |
| 1777844848 | 12.78° C | 47% | 1015.6 hPa | 0 mm | - | 319 W/m² | - |
| 1777844545 | 12.78° C | 50% | 1015.9 hPa | 0 mm | - | 314 W/m² | - |
| 1777844243 | 12.78° C | 46% | 1015.7 hPa | 0 mm | - | 343 W/m² | - |
| 1777843940 | 12.78° C | 47% | 1015.7 hPa | 0 mm | - | 372 W/m² | - |
| 1777843637 | 12.78° C | 47% | 1015.9 hPa | 0 mm | - | 380 W/m² | - |
| 1777843335 | 12.78° C | 47% | 1015.9 hPa | 0 mm | - | 416 W/m² | - |
| 1777843032 | 12.22° C | 50% | 1016 hPa | 0 mm | - | 431 W/m² | - |
| 1777842728 | 12.78° C | 45% | 1016 hPa | 0 mm | - | 320 W/m² | - |
| 1777842423 | 12.78° C | 46% | 1015.7 hPa | 0 mm | - | 202 W/m² | - |
| 1777842121 | 12.78° C | 49% | 1016 hPa | 0 mm | - | 516 W/m² | - |
| 1777841816 | 12.78° C | 47% | 1015.6 hPa | 0 mm | - | 540 W/m² | - |
| 1777841513 | 12.22° C | 48% | 1016.1 hPa | 0 mm | - | 301 W/m² | - |
| 1777841209 | 12.78° C | 48% | 1016.1 hPa | 0 mm | - | 517 W/m² | - |
| 1777840907 | 12.22° C | 50% | 1015.7 hPa | 0 mm | - | 547 W/m² | - |
| 1777840604 | 11.67° C | 51% | 1016 hPa | 0 mm | - | 547 W/m² | - |
| 1777840302 | 11.67° C | 50% | 1016 hPa | 0 mm | - | 458 W/m² | - |
| 1777839998 | 12.22° C | 48% | 1016.1 hPa | 0 mm | - | 556 W/m² | - |
| 1777839697 | 11.67° C | 47% | 1016.1 hPa | 0 mm | - | 586 W/m² | - |
| 1777839394 | 12.22° C | 49% | 1016.2 hPa | 0 mm | - | 549 W/m² | - |
| 1777839092 | 12.22° C | 48% | 1016 hPa | 0 mm | - | 617 W/m² | - |
| 1777838787 | 11.67° C | 49% | 1016.4 hPa | 0 mm | - | 177 W/m² | - |
| 1777838484 | 12.22° C | 51% | 1016.3 hPa | 0 mm | - | 673 W/m² | - |
| 1777838181 | 11.11° C | 47% | 1016.1 hPa | 0 mm | - | 192 W/m² | - |
* Rain latest hour (hover to see other rain measurements)
** Current wind speed in m/s (hover to see current wind gust speed)